Time;durP1;ratioP1;P1;durP2;ratioP2;P2;SDS_P1;SDS_P2;PMS_P1;PMS_P2;Temp;Humidity;BMP_temperature;BMP_pressure;BME280_temperature;BME280_humidity;BME280_pressure;Samples;Min_cycle;Max_cycle;Signal;HPM_P1;HPM_P2
2022/09/27 00:01:05;;;;;;;6.67;5.22;;;;;;;16.16;79.17;99236.31;1684035;83;22646;-71
2022/09/27 00:03:32;;;;;;;6.50;5.25;;;;;;;16.17;79.19;99235.30;1679311;83;21099;-72
2022/09/27 00:06:07;;;;;;;7.08;5.30;;;;;;;16.17;79.19;99237.95;1708208;82;20953;-71
2022/09/27 00:08:35;;;;;;;11.43;6.15;;;;;;;16.15;79.25;99230.16;1707001;82;21098;-72
2022/09/27 00:11:09;;;;;;;6.92;5.60;;;;;;;16.16;79.26;99234.98;1710127;82;20953;-72
2022/09/27 00:13:36;;;;;;;8.75;5.00;;;;;;;16.17;79.27;99231.30;1711801;82;21943;-72
2022/09/27 00:16:06;;;;;;;9.50;5.50;;;;;;;16.18;79.27;99226.28;1681581;82;21103;-74
2022/09/27 00:18:33;;;;;;;7.37;5.45;;;;;;;16.17;79.27;99224.64;1689168;82;21111;-71
2022/09/27 00:21:08;;;;;;;6.70;5.58;;;;;;;16.17;79.29;99223.30;1683327;83;21040;-72
2022/09/27 00:23:34;;;;;;;9.28;5.80;;;;;;;16.17;79.33;99219.31;1711127;82;21052;-72
2022/09/27 00:26:01;;;;;;;8.95;5.80;;;;;;;16.16;79.35;99216.33;1706937;82;22318;-71
2022/09/27 00:28:29;;;;;;;8.03;5.60;;;;;;;16.16;79.37;99218.99;1704762;83;20937;-72
2022/09/27 00:30:58;;;;;;;6.95;5.47;;;;;;;16.15;79.38;99219.50;1708975;84;21056;-71
2022/09/27 00:33:26;;;;;;;6.75;5.70;;;;;;;16.16;79.43;99213.67;1672955;85;21032;-71
2022/09/27 00:35:52;;;;;;;6.67;5.10;;;;;;;16.16;79.48;99207.83;1669499;85;20975;-71
2022/09/27 00:38:19;;;;;;;12.53;6.00;;;;;;;16.16;79.44;99207.83;1680768;84;22167;-72
2022/09/27 00:40:46;;;;;;;8.40;5.50;;;;;;;16.17;79.43;99200.66;1683497;83;21024;-75
2022/09/27 00:43:19;;;;;;;8.98;5.42;;;;;;;16.18;79.43;99197.80;1674696;83;21032;-72
2022/09/27 00:45:51;;;;;;;9.18;5.80;;;;;;;16.19;79.39;99198.63;1683659;83;21012;-72
2022/09/27 00:48:20;;;;;;;7.97;5.50;;;;;;;16.18;79.35;99193.81;1683932;83;20997;-71
2022/09/27 00:50:48;;;;;;;7.35;5.72;;;;;;;16.19;79.36;99189.31;1683370;83;21892;-72
2022/09/27 00:53:23;;;;;;;7.87;5.80;;;;;;;16.18;79.32;99182.33;1684849;83;20993;-72
2022/09/27 00:55:54;;;;;;;7.62;5.72;;;;;;;16.18;79.33;99179.66;1702617;82;20956;-72
2022/09/27 00:58:26;;;;;;;8.78;6.20;;;;;;;16.18;79.26;99183.66;1700942;82;20965;-72
2022/09/27 01:00:56;;;;;;;8.80;5.80;;;;;;;16.17;79.26;99175.36;1700490;82;20957;-72
2022/09/27 01:03:31;;;;;;;8.70;5.60;;;;;;;16.17;79.28;99176.69;1693885;83;21897;-72
2022/09/27 01:05:58;;;;;;;6.97;5.80;;;;;;;16.19;79.23;99187.97;1701738;82;20951;-72
2022/09/27 01:08:25;;;;;;;8.50;5.87;;;;;;;16.19;79.20;99175.98;1706686;82;20995;-72
2022/09/27 01:11:01;;;;;;;13.10;5.80;;;;;;;16.19;79.15;99170.15;1695578;83;20976;-72
2022/09/27 01:13:48;;;;;;;7.87;5.62;;;;;;;16.20;79.10;99173.64;1690581;83;21012;-72
2022/09/27 01:16:35;;;;;;;9.33;6.22;;;;;;;16.20;79.06;99171.80;1709184;83;21944;-73
2022/09/27 01:19:56;;;;;;;6.42;5.65;;;;;;;16.21;79.00;99168.63;1700630;83;21055;-72
2022/09/27 01:23:12;;;;;;;10.85;6.25;;;;;;;16.20;78.94;99162.47;1684456;83;21007;-71
2022/09/27 01:26:13;;;;;;;8.43;6.40;;;;;;;16.20;78.94;99161.66;1701107;82;20961;-73
2022/09/27 01:29:08;;;;;;;7.20;5.40;;;;;;;16.20;78.89;99162.47;1703433;82;20972;-72
2022/09/27 01:32:06;;;;;;;7.58;6.20;;;;;;;16.20;78.88;99162.47;1686505;83;21958;-71
2022/09/27 01:34:53;;;;;;;10.20;6.28;;;;;;;16.19;78.89;99158.16;1694722;82;21044;-71
2022/09/27 01:37:40;;;;;;;8.48;6.42;;;;;;;16.20;78.84;99156.32;1707975;83;20948;-71
2022/09/27 01:40:27;;;;;;;7.03;6.00;;;;;;;16.20;78.85;99154.98;1711239;82;20997;-71
2022/09/27 01:43:07;;;;;;;7.85;6.65;;;;;;;16.19;78.82;99149.34;1697236;82;21083;-72
2022/09/27 01:45:47;;;;;;;7.22;6.40;;;;;;;16.19;78.84;99144.02;1674846;84;21894;-71
2022/09/27 01:48:24;;;;;;;8.73;6.05;;;;;;;16.19;78.83;99132.85;1673091;83;20998;-72
2022/09/27 01:51:07;;;;;;;8.05;6.37;;;;;;;16.20;78.84;99137.67;1673317;85;20982;-72
2022/09/27 01:53:40;;;;;;;8.23;6.50;;;;;;;16.19;78.83;99134.69;1677662;83;21048;-72
2022/09/27 01:56:34;;;;;;;7.87;6.97;;;;;;;16.19;78.87;99134.69;1676781;83;20950;-72
2022/09/27 01:59:28;;;;;;;8.35;6.90;;;;;;;16.17;78.92;99122.90;1670043;83;21841;-72
2022/09/27 02:01:53;;;;;;;7.25;6.55;;;;;;;16.17;78.94;99118.08;1665695;83;21560;-72
2022/09/27 02:04:23;;;;;;;10.18;7.05;;;;;;;16.15;79.00;99115.61;1714762;82;20964;-71
2022/09/27 02:06:58;;;;;;;11.88;6.67;;;;;;;16.16;79.00;99123.09;1707367;82;21459;-72
2022/09/27 02:09:38;;;;;;;9.13;7.03;;;;;;;16.16;79.01;99121.25;1706946;82;20993;-72
2022/09/27 02:12:12;;;;;;;8.28;7.20;;;;;;;16.16;79.03;99115.09;1710121;82;22343;-72
2022/09/27 02:14:55;;;;;;;11.25;7.05;;;;;;;16.14;79.09;99111.80;1685396;83;21210;-72
2022/09/27 02:17:49;;;;;;;8.88;7.10;;;;;;;16.14;79.11;99115.80;1671298;83;21070;-72
2022/09/27 02:20:41;;;;;;;9.25;7.10;;;;;;;16.13;79.16;99115.48;1676335;83;21015;-71
2022/09/27 02:23:41;;;;;;;9.08;7.60;;;;;;;16.12;79.22;99114.66;1672433;82;21004;-72
2022/09/27 02:26:24;;;;;;;10.05;7.50;;;;;;;16.11;79.27;99107.66;1672344;83;22518;-72
2022/09/27 02:29:11;;;;;;;9.85;7.70;;;;;;;16.10;79.40;99107.34;1711413;82;21110;-73
2022/09/27 02:31:42;;;;;;;7.78;7.05;;;;;;;16.09;79.48;99103.03;1669861;83;21016;-72
2022/09/27 02:34:22;;;;;;;10.60;8.00;;;;;;;16.08;79.57;99105.89;1666798;83;21004;-72
2022/09/27 02:36:52;;;;;;;12.07;7.80;;;;;;;16.07;79.67;99109.56;1686463;83;20982;-72
2022/09/27 02:39:18;;;;;;;11.35;7.95;;;;;;;16.06;79.79;99102.09;1636439;85;22507;-72
2022/09/27 02:41:45;;;;;;;9.23;8.00;;;;;;;16.05;79.92;99106.27;1699392;82;21472;-72
2022/09/27 02:44:13;;;;;;;10.93;7.95;;;;;;;16.03;80.01;99109.13;1652111;85;20968;-71
2022/09/27 02:46:58;;;;;;;8.68;7.50;;;;;;;16.02;80.08;99106.15;1638360;85;21069;-71
2022/09/27 02:49:46;;;;;;;10.85;8.08;;;;;;;16.01;80.17;99097.30;1680325;83;21069;-72
2022/09/27 02:52:57;;;;;;;11.65;8.83;;;;;;;15.99;80.27;99094.01;1684494;82;21999;-74
2022/09/27 02:55:47;;;;;;;11.57;8.45;;;;;;;15.98;80.39;99083.05;1669348;83;21000;-72
2022/09/27 02:58:45;;;;;;;10.53;8.60;;;;;;;15.97;80.45;99080.57;1616189;85;21072;-72
2022/09/27 03:01:31;;;;;;;10.58;8.80;;;;;;;15.95;80.56;99074.11;1654180;83;21430;-72
2022/09/27 03:04:32;;;;;;;10.55;8.95;;;;;;;15.94;80.64;99073.79;1673643;83;21535;-72
2022/09/27 03:06:59;;;;;;;9.88;8.68;;;;;;;15.94;80.74;99077.78;1673043;84;21907;-72
2022/09/27 03:09:28;;;;;;;12.25;8.80;;;;;;;15.92;80.84;99066.50;1689682;83;21067;-72
2022/09/27 03:11:56;;;;;;;11.63;9.50;;;;;;;15.93;80.91;99065.48;1694501;83;20992;-71
2022/09/27 03:14:23;;;;;;;10.23;9.10;;;;;;;15.94;80.96;99075.62;1685364;83;20975;-77
2022/09/27 03:16:57;;;;;;;10.40;9.25;;;;;;;15.93;81.04;99068.16;1689156;83;20956;-72
2022/09/27 03:19:43;;;;;;;11.55;9.70;;;;;;;15.93;81.07;99065.48;1659618;83;21859;-71
2022/09/27 03:22:27;;;;;;;10.58;9.50;;;;;;;15.94;81.14;99064.98;1675917;83;21087;-72
2022/09/27 03:24:54;;;;;;;11.38;9.25;;;;;;;15.94;81.19;99075.62;1694561;82;21063;-72
2022/09/27 03:27:20;;;;;;;11.48;9.45;;;;;;;15.93;81.23;99067.33;1701012;82;21048;-71
2022/09/27 03:29:48;;;;;;;13.05;9.30;;;;;;;15.93;81.26;99063.33;1700558;83;21032;-71
2022/09/27 03:32:15;;;;;;;11.33;9.73;;;;;;;15.92;81.32;99071.83;1660447;84;21804;-73
2022/09/27 03:34:46;;;;;;;10.93;9.63;;;;;;;15.92;81.32;99073.64;1678966;83;21457;-75
2022/09/27 03:37:13;;;;;;;14.07;9.25;;;;;;;15.92;81.31;99071.83;1673115;83;21021;-72
2022/09/27 03:39:39;;;;;;;11.35;9.30;;;;;;;15.92;81.34;99069.17;1673933;83;20979;-72
2022/09/27 03:42:06;;;;;;;12.10;9.48;;;;;;;15.93;81.33;99064.16;1674785;83;21009;-72
2022/09/27 03:44:34;;;;;;;11.40;9.50;;;;;;;15.91;81.33;99055.50;1674880;83;21845;-71
2022/09/27 03:47:01;;;;;;;11.12;9.58;;;;;;;15.89;81.41;99057.53;1687303;83;20952;-72
2022/09/27 03:49:28;;;;;;;12.75;9.75;;;;;;;15.88;81.46;99061.22;1685944;83;21016;-72
2022/09/27 03:51:55;;;;;;;10.75;9.65;;;;;;;15.88;81.50;99060.39;1686746;83;21011;-72
2022/09/27 03:54:22;;;;;;;13.10;9.70;;;;;;;15.89;81.50;99058.88;1687860;83;21081;-72
2022/09/27 03:56:48;;;;;;;11.20;9.93;;;;;;;15.89;81.52;99053.55;1681245;83;21432;-72
2022/09/27 03:59:16;;;;;;;11.05;9.90;;;;;;;15.89;81.52;99053.55;1686739;83;21010;-72
2022/09/27 04:01:44;;;;;;;13.98;10.63;;;;;;;15.90;81.51;99055.19;1682227;83;21084;-72
2022/09/27 04:04:13;;;;;;;10.85;9.73;;;;;;;15.90;81.50;99049.86;1687062;84;21026;-72
2022/09/27 04:06:40;;;;;;;14.98;10.38;;;;;;;15.93;81.46;99050.84;1684953;83;21124;-74
2022/09/27 04:09:07;;;;;;;10.53;9.30;;;;;;;15.94;81.42;99052.48;1686453;83;21928;-72
2022/09/27 04:11:38;;;;;;;11.50;9.53;;;;;;;15.95;81.42;99058.64;1683247;83;21069;-71
2022/09/27 04:14:05;;;;;;;11.70;10.48;;;;;;;15.94;81.44;99062.31;1664546;84;21115;-71
2022/09/27 04:16:34;;;;;;;11.73;10.28;;;;;;;15.95;81.48;99062.13;1676045;83;21110;-72
2022/09/27 04:19:12;;;;;;;14.10;10.28;;;;;;;15.97;81.43;99057.42;1667899;83;21022;-72
2022/09/27 04:21:46;;;;;;;11.38;10.08;;;;;;;15.97;81.43;99049.44;1687784;83;21920;-71
2022/09/27 04:24:13;;;;;;;14.23;9.80;;;;;;;15.98;81.44;99049.75;1684046;83;21038;-71
2022/09/27 04:26:41;;;;;;;11.68;9.78;;;;;;;15.99;81.40;99051.91;1685867;83;20976;-72
2022/09/27 04:29:09;;;;;;;13.00;10.68;;;;;;;15.99;81.44;99055.39;1689804;83;20986;-72
2022/09/27 04:31:39;;;;;;;12.60;10.68;;;;;;;16.00;81.45;99054.38;1690507;83;21039;-73
2022/09/27 04:36:25;;;;;;;11.12;10.03;;;;;;;16.01;81.47;99052.53;1684626;83;21812;-74
2022/09/27 04:36:50;;;;;;;12.88;10.45;;;;;;;16.01;81.47;99051.20;1687954;83;21491;-74
2022/09/27 04:39:18;;;;;;;11.88;10.63;;;;;;;16.01;81.49;99043.22;1687766;83;21082;-73
2022/09/27 04:41:45;;;;;;;11.78;10.32;;;;;;;16.00;81.52;99037.58;1714406;81;21068;-75
2022/09/27 04:44:12;;;;;;;12.15;10.55;;;;;;;16.02;81.57;99040.90;1708858;82;21043;-72
2022/09/27 04:46:40;;;;;;;15.58;10.98;;;;;;;16.01;81.60;99042.70;1709747;82;22955;-73
2022/09/27 04:49:09;;;;;;;13.38;11.65;;;;;;;16.00;81.63;99042.39;1680396;83;21045;-74
2022/09/27 04:51:36;;;;;;;12.75;10.63;;;;;;;16.01;81.69;99047.21;1683161;83;21044;-71
2022/09/27 04:54:03;;;;;;;12.60;11.03;;;;;;;15.99;81.77;99038.08;1676291;84;21057;-73
2022/09/27 04:56:33;;;;;;;14.23;10.78;;;;;;;15.98;81.87;99040.94;1672732;83;21057;-72
2022/09/27 04:59:00;;;;;;;11.85;10.43;;;;;;;15.97;81.93;99033.45;1689523;83;21934;-71
2022/09/27 05:01:27;;;;;;;12.13;10.78;;;;;;;15.97;82.04;99036.63;1684554;83;21051;-73
2022/09/27 05:04:10;;;;;;;13.00;10.80;;;;;;;15.96;82.16;99033.14;1678358;83;21465;-73
2022/09/27 05:06:39;;;;;;;12.18;10.48;;;;;;;15.98;82.25;99036.44;1680723;83;21031;-73
2022/09/27 05:09:07;;;;;;;11.88;10.75;;;;;;;15.99;82.37;99023.95;1684821;83;21056;-73
2022/09/27 05:11:38;;;;;;;13.45;11.05;;;;;;;15.99;82.49;99027.43;1679446;83;21819;-72
2022/09/27 05:14:07;;;;;;;12.78;11.15;;;;;;;16.02;82.59;99023.59;1700201;82;21503;-74
2022/09/27 05:16:36;;;;;;;12.78;11.40;;;;;;;16.03;82.68;99021.23;1684291;83;21079;-72
2022/09/27 05:19:10;;;;;;;14.53;12.05;;;;;;;16.05;82.73;99019.71;1639108;85;21098;-75
2022/09/27 05:21:56;;;;;;;11.68;10.58;;;;;;;16.07;82.81;99022.49;1634524;86;21102;-72
2022/09/27 05:24:23;;;;;;;13.48;11.33;;;;;;;16.09;82.90;99022.30;1638580;86;21952;-79
2022/09/27 05:26:50;;;;;;;11.95;10.93;;;;;;;16.09;82.97;99019.13;1657230;82;20998;-72
2022/09/27 05:29:17;;;;;;;15.98;12.53;;;;;;;16.12;83.02;99014.77;1698582;82;21105;-72
2022/09/27 05:31:46;;;;;;;15.85;12.85;;;;;;;16.16;83.09;99021.86;1697836;82;21059;-71
2022/09/27 05:34:13;;;;;;;18.10;13.08;;;;;;;16.17;83.12;99022.18;1699881;83;21047;-72
2022/09/27 05:36:42;;;;;;;14.93;11.97;;;;;;;16.20;83.11;99016.45;1695438;82;21841;-73
2022/09/27 05:39:09;;;;;;;13.03;11.70;;;;;;;16.23;83.15;99012.10;1696028;82;21054;-72
2022/09/27 05:41:36;;;;;;;13.15;11.83;;;;;;;16.26;83.18;99015.20;1695169;82;21013;-74
2022/09/27 05:44:02;;;;;;;14.25;12.75;;;;;;;16.27;83.24;99007.52;1695448;82;21067;-72
2022/09/27 05:46:29;;;;;;;13.93;12.30;;;;;;;16.30;83.27;99007.12;1698755;82;21097;-72
2022/09/27 05:48:56;;;;;;;14.35;12.55;;;;;;;16.34;83.31;99010.25;1698499;82;21817;-73
2022/09/27 05:51:23;;;;;;;13.72;12.33;;;;;;;16.35;83.36;99022.55;1698929;82;21016;-73
2022/09/27 05:53:50;;;;;;;14.53;12.78;;;;;;;16.39;83.42;99022.98;1690852;82;21042;-72
2022/09/27 05:56:19;;;;;;;14.75;12.53;;;;;;;16.41;83.43;99020.97;1686380;84;21051;-75
2022/09/27 05:58:51;;;;;;;14.53;12.78;;;;;;;16.41;83.46;99020.97;1686531;82;21062;-72
2022/09/27 06:01:19;;;;;;;13.38;11.97;;;;;;;16.43;83.51;99017.09;1700250;82;21949;-72
2022/09/27 06:03:48;;;;;;;14.30;12.18;;;;;;;16.44;83.51;99019.25;1661142;84;21892;-74
2022/09/27 06:06:26;;;;;;;12.88;11.70;;;;;;;16.44;83.54;99017.41;1696742;82;21491;-74
2022/09/27 06:08:54;;;;;;;13.28;11.97;;;;;;;16.46;83.53;99016.70;1698224;82;21789;-73
2022/09/27 06:11:22;;;;;;;13.10;11.73;;;;;;;16.47;83.55;99020.19;1696468;82;21059;-72
2022/09/27 06:13:51;;;;;;;13.88;11.70;;;;;;;16.47;83.55;99023.67;1683320;82;22504;-73
2022/09/27 06:16:18;;;;;;;12.53;11.33;;;;;;;16.49;83.59;99022.14;1703299;82;21046;-72
2022/09/27 06:18:45;;;;;;;13.03;11.35;;;;;;;16.50;83.59;99021.98;1705068;82;21668;-72
2022/09/27 06:21:15;;;;;;;12.98;11.68;;;;;;;16.51;83.60;99022.80;1685175;83;21146;-72
2022/09/27 06:23:46;;;;;;;12.40;11.25;;;;;;;16.51;83.66;99019.63;1685565;83;21101;-71
2022/09/27 06:26:14;;;;;;;14.00;12.58;;;;;;;16.52;83.45;99024.45;1710898;82;22008;-73
2022/09/27 06:28:44;;;;;;;13.65;12.13;;;;;;;16.53;83.71;99021.58;1712365;82;21083;-73
2022/09/27 06:31:10;;;;;;;13.10;11.65;;;;;;;16.54;83.78;99024.56;1692125;82;21096;-73
2022/09/27 06:33:49;;;;;;;13.35;12.05;;;;;;;16.55;83.83;99018.20;1676879;83;21048;-72
2022/09/27 06:36:15;;;;;;;12.10;10.72;;;;;;;16.55;83.87;99020.88;1698668;84;21017;-72
2022/09/27 06:38:45;;;;;;;13.25;11.95;;;;;;;16.55;83.91;99022.20;1700502;82;22333;-74
2022/09/27 06:41:14;;;;;;;13.45;12.05;;;;;;;16.55;83.92;99016.88;1705099;82;21090;-73
2022/09/27 06:43:48;;;;;;;13.20;11.90;;;;;;;16.55;83.91;99013.39;1675874;84;21077;-77
2022/09/27 06:46:37;;;;;;;13.38;12.07;;;;;;;16.52;83.96;99018.60;1713093;82;21067;-72
2022/09/27 06:49:09;;;;;;;14.38;12.88;;;;;;;16.52;83.99;99013.27;1691827;84;21140;-72
2022/09/27 06:51:41;;;;;;;14.93;13.22;;;;;;;16.52;84.03;99011.94;1691831;83;21965;-72
2022/09/27 06:54:10;;;;;;;15.80;14.20;;;;;;;16.53;84.08;99008.25;1643178;84;21069;-73
2022/09/27 06:56:38;;;;;;;16.67;14.87;;;;;;;16.54;84.17;99004.57;1679602;83;21039;-73
2022/09/27 07:02:15;;;;;;;17.92;16.10;;;;;;;16.58;84.37;99003.66;1690720;83;21034;-71
2022/09/27 07:05:03;;;;;;;16.17;14.58;;;;;;;16.64;84.52;99016.73;1691108;84;22209;-74
2022/09/27 07:07:42;;;;;;;16.35;14.60;;;;;;;16.67;84.52;99013.67;1682686;83;21050;-73
2022/09/27 07:10:10;;;;;;;13.95;12.47;;;;;;;16.69;84.58;99011.16;1687175;83;21066;-73
2022/09/27 07:12:40;;;;;;;13.18;11.85;;;;;;;16.72;84.62;99004.63;1688540;83;21063;-73
2022/09/27 07:15:12;;;;;;;14.07;12.68;;;;;;;16.74;84.58;99009.25;1680926;83;21077;-76
2022/09/27 07:17:41;;;;;;;14.60;13.22;;;;;;;16.74;84.56;99009.25;1706130;82;21950;-72
2022/09/27 07:20:08;;;;;;;17.32;13.38;;;;;;;16.75;84.56;99009.56;1688750;84;21095;-73
2022/09/27 07:22:46;;;;;;;15.83;14.00;;;;;;;16.74;84.47;99007.92;1680995;83;21488;-71
2022/09/27 07:25:15;;;;;;;15.05;13.65;;;;;;;16.71;84.39;99002.98;1644975;85;21459;-71
2022/09/27 07:27:45;;;;;;;15.05;13.08;;;;;;;16.71;84.35;99010.98;1681319;83;21063;-74
2022/09/27 07:30:15;;;;;;;15.15;13.48;;;;;;;16.69;84.35;99001.82;1691462;82;22090;-75
2022/09/27 07:32:46;;;;;;;14.50;13.15;;;;;;;16.69;84.37;99004.48;1695088;83;21110;-76
2022/09/27 07:35:15;;;;;;;15.70;12.82;;;;;;;16.68;84.35;99000.66;1696640;82;21398;-72
2022/09/27 07:37:46;;;;;;;14.28;12.78;;;;;;;16.69;84.37;98997.00;1705320;82;20984;-72
2022/09/27 07:40:15;;;;;;;14.25;12.85;;;;;;;16.70;84.37;98994.67;1682229;83;21071;-73
2022/09/27 07:42:41;;;;;;;23.75;14.18;;;;;;;16.70;84.27;98996.83;1690722;82;21494;-71
2022/09/27 07:45:12;;;;;;;54.95;16.87;;;;;;;16.70;84.26;99001.34;1694362;82;21035;-72
2022/09/27 07:47:51;;;;;;;30.35;19.77;;;;;;;16.68;84.20;99004.17;1656841;83;34209;-70
2022/09/27 07:50:23;;;;;;;42.65;24.98;;;;;;;16.67;84.24;99005.16;1687734;82;21480;-71
2022/09/27 07:52:54;;;;;;;49.03;27.40;;;;;;;16.67;84.25;99001.16;1671050;84;21014;-70
2022/09/27 07:55:28;;;;;;;54.45;29.75;;;;;;;16.68;84.29;99001.51;1676917;82;22614;-74
2022/09/27 07:58:09;;;;;;;58.85;30.02;;;;;;;16.67;84.27;98997.17;1687069;82;21533;-71
2022/09/27 08:00:38;;;;;;;53.20;29.85;;;;;;;16.68;84.28;98997.98;1695590;82;21319;-75
2022/09/27 08:03:14;;;;;;;59.95;30.85;;;;;;;16.68;84.25;98993.98;1693924;82;21472;-71
2022/09/27 08:05:46;;;;;;;53.83;28.25;;;;;;;16.66;84.20;98993.36;1681085;84;21050;-74
2022/09/27 08:08:27;;;;;;;51.42;28.80;;;;;;;16.63;84.18;98993.25;1686449;82;21844;-71
2022/09/27 08:10:58;;;;;;;48.95;28.32;;;;;;;16.62;84.21;98996.12;1676745;83;21119;-73
2022/09/27 08:13:25;;;;;;;46.33;27.17;;;;;;;16.58;84.25;98994.33;1701145;82;21080;-74
2022/09/27 08:15:58;;;;;;;55.88;31.95;;;;;;;16.56;84.31;98991.86;1679694;83;21518;-73
2022/09/27 08:18:34;;;;;;;50.08;30.77;;;;;;;16.55;84.32;98994.22;1682158;82;27114;-72
2022/09/27 08:21:04;;;;;;;57.40;31.97;;;;;;;16.51;84.33;98996.97;1667253;82;21786;-73
2022/09/27 08:23:45;;;;;;;87.92;37.05;;;;;;;16.52;84.36;98993.28;1686943;82;21075;-73
2022/09/27 08:26:20;;;;;;;49.75;28.45;;;;;;;16.53;84.41;98989.59;1691256;83;21126;-73
2022/09/27 08:28:52;;;;;;;49.60;28.85;;;;;;;16.55;84.43;98988.89;1661107;83;21133;-72
2022/09/27 08:31:20;;;;;;;33.53;21.73;;;;;;;16.56;84.43;98984.38;1684415;83;20987;-73
2022/09/27 08:33:50;;;;;;;27.00;19.05;;;;;;;16.55;84.40;98976.89;1694343;83;21879;-73
2022/09/27 08:36:17;;;;;;;21.33;16.37;;;;;;;16.56;84.39;98979.05;1704477;82;21000;-76
2022/09/27 08:38:44;;;;;;;18.85;14.80;;;;;;;16.57;84.46;98971.36;1697358;82;21011;-74
2022/09/27 08:41:37;;;;;;;15.32;13.50;;;;;;;16.60;84.62;98977.15;1640771;83;21040;-73
2022/09/27 08:44:19;;;;;;;15.83;13.03;;;;;;;16.63;84.64;98979.92;1702327;82;21032;-73
2022/09/27 08:47:20;;;;;;;13.68;12.33;;;;;;;16.68;84.58;98979.33;1687919;82;21959;-72
2022/09/27 08:49:59;;;;;;;13.70;11.43;;;;;;;16.70;84.46;98980.02;1653152;83;21083;-74
2022/09/27 08:52:42;;;;;;;14.68;11.90;;;;;;;16.69;84.15;98977.00;1664278;84;21055;-73
2022/09/27 08:55:22;;;;;;;14.05;12.33;;;;;;;16.68;84.14;98978.84;1690734;83;21061;-73
2022/09/27 08:57:57;;;;;;;16.62;13.00;;;;;;;16.71;84.00;98973.66;1692843;83;21062;-73
2022/09/27 09:00:26;;;;;;;18.75;14.40;;;;;;;16.74;84.00;98973.25;1695140;83;21783;-72
2022/09/27 09:02:56;;;;;;;25.30;16.23;;;;;;;16.73;83.76;98975.61;1699010;83;21038;-73
2022/09/27 09:05:33;;;;;;;27.15;18.25;;;;;;;16.73;83.72;98970.28;1693502;82;21099;-73
2022/09/27 09:08:40;;;;;;;29.32;18.95;;;;;;;16.74;83.64;98973.25;1666450;84;21083;-73
2022/09/27 09:14:49;;;;;;;40.92;23.00;;;;;;;16.73;83.32;98968.95;1691234;83;21858;-72
2022/09/27 09:17:29;;;;;;;;;;;;;;;16.71;83.20;98968.33;1687355;83;21054;-71
2022/09/27 09:20:45;;;;;;;38.58;22.82;;;;;;;16.71;83.14;98970.48;1687557;83;20139;-70
2022/09/27 09:23:59;;;;;;;23.40;15.78;;;;;;;16.69;83.00;98965.01;1689394;83;21131;-73
2022/09/27 09:26:50;;;;;;;22.42;13.62;;;;;;;16.64;82.78;98960.75;1688420;83;21047;-74
2022/09/27 09:29:40;;;;;;;13.90;11.38;;;;;;;16.58;82.56;98962.34;1693451;83;21973;-72
2022/09/27 09:32:28;;;;;;;13.83;11.35;;;;;;;16.53;82.41;98958.13;1693914;83;21014;-72
2022/09/27 09:35:02;;;;;;;12.80;11.40;;;;;;;16.52;82.34;98956.48;1681865;84;21006;-71
2022/09/27 09:37:50;;;;;;;;;;;;;;;16.48;82.15;98956.53;1689976;84;21097;-72
2022/09/27 09:40:37;;;;;;;17.50;9.88;;;;;;;16.45;82.14;98952.42;1692920;84;20182;-72
2022/09/27 09:43:19;;;;;;;10.98;9.85;;;;;;;16.40;81.98;98948.68;1691297;83;22349;-73
2022/09/27 09:45:51;;;;;;;15.48;10.50;;;;;;;16.39;82.02;98941.70;1690642;83;21014;-76
2022/09/27 09:48:42;;;;;;;12.50;10.63;;;;;;;16.39;81.99;98938.53;1685547;83;21022;-74
2022/09/27 09:51:16;;;;;;;12.10;9.33;;;;;;;16.38;81.76;98937.40;1690756;83;21427;-74
2022/09/27 09:53:46;;;;;;;;;;;;;;;16.38;81.41;98936.06;1696525;83;20963;-72
2022/09/27 09:56:31;;;;;;;72.10;16.17;;;;;;;16.40;81.52;98934.84;1712856;83;21864;-73
2022/09/27 09:59:03;;;;;;;23.92;14.73;;;;;;;16.39;81.33;98935.05;1666008;83;21059;-71
2022/09/27 10:01:44;;;;;;;36.98;20.55;;;;;;;16.40;81.45;98932.18;1694369;83;21094;-70
2022/09/27 10:04:21;;;;;;;59.35;29.48;;;;;;;16.45;81.45;98930.28;1678207;84;21055;-70
2022/09/27 10:06:48;;;;;;;65.72;32.45;;;;;;;16.44;81.30;98929.46;1691607;83;21462;-69
2022/09/27 10:09:15;;;;;;;68.40;32.80;;;;;;;16.43;81.00;98926.48;1689678;83;22720;-70
2022/09/27 10:11:44;;;;;;;53.33;21.73;;;;;;;16.44;81.01;98928.64;1692979;83;20976;-70
2022/09/27 10:14:20;;;;;;;31.70;17.98;;;;;;;16.46;80.81;98927.93;1710486;83;21040;-70
2022/09/27 10:16:57;;;;;;;20.00;13.55;;;;;;;16.44;80.59;98928.64;1698920;83;20984;-71
2022/09/27 10:19:29;;;;;;;21.65;13.40;;;;;;;16.40;80.38;98925.52;1697622;84;21383;-71
2022/09/27 10:22:23;;;;;;;15.53;11.33;;;;;;;16.38;80.17;98932.07;1699000;83;21942;-70
2022/09/27 10:24:58;;;;;;;15.68;11.33;;;;;;;16.34;80.05;98927.64;1697516;84;20867;-70
2022/09/27 10:27:45;;;;;;;15.98;12.35;;;;;;;16.33;79.98;98921.19;1700184;82;21386;-69
2022/09/27 10:30:31;;;;;;;22.77;12.00;;;;;;;16.31;80.00;98922.72;1680467;85;21046;-69
2022/09/27 10:33:05;;;;;;;26.65;14.00;;;;;;;16.30;79.95;98917.86;1681207;83;21173;-69
2022/09/27 10:35:40;;;;;;;19.40;13.78;;;;;;;16.28;79.75;98916.42;1677512;84;21454;-69
2022/09/27 10:38:27;;;;;;;24.75;15.20;;;;;;;16.25;79.71;98907.49;1704499;84;21045;-70
2022/09/27 10:41:18;;;;;;;22.58;14.85;;;;;;;16.24;79.72;98911.17;1695810;83;21053;-69
2022/09/27 10:43:45;;;;;;;22.85;14.95;;;;;;;16.23;79.76;98910.36;1680674;83;21052;-69
2022/09/27 10:46:27;;;;;;;23.90;15.30;;;;;;;16.24;79.71;98915.17;1671420;83;20961;-69
2022/09/27 10:49:28;;;;;;;27.35;15.55;;;;;;;16.20;79.62;98904.06;1644804;87;21911;-69
2022/09/27 10:52:02;;;;;;;17.92;13.75;;;;;;;16.17;79.65;98901.80;1645165;85;21129;-69
2022/09/27 10:54:32;;;;;;;15.50;12.07;;;;;;;16.16;79.71;98894.83;1645300;87;21086;-69
2022/09/27 10:57:06;;;;;;;16.60;12.25;;;;;;;16.13;79.67;98885.90;1645240;85;21043;-69
2022/09/27 10:59:35;;;;;;;19.05;12.47;;;;;;;16.14;79.78;98896.05;1645773;85;20997;-69
2022/09/27 11:02:03;;;;;;;13.10;11.60;;;;;;;16.14;79.83;98890.20;1643414;85;21844;-70
2022/09/27 11:04:35;;;;;;;13.50;10.75;;;;;;;16.16;79.93;98884.17;1622938;87;21028;-69
2022/09/27 11:07:21;;;;;;;13.00;10.70;;;;;;;16.16;79.98;98883.34;1639802;85;21020;-70
2022/09/27 11:10:01;;;;;;;11.55;10.35;;;;;;;16.16;80.04;98878.02;1611888;87;21112;-69
2022/09/27 11:12:26;;;;;;;11.40;10.25;;;;;;;16.19;80.11;98877.62;1637678;85;21043;-69
2022/09/27 11:14:58;;;;;;;13.15;10.08;;;;;;;16.18;80.16;98873.31;1639654;85;22006;-69
2022/09/27 11:17:36;;;;;;;10.80;9.80;;;;;;;16.21;80.21;98867.59;1639043;85;21107;-69
2022/09/27 11:20:11;;;;;;;10.65;9.65;;;;;;;16.24;80.18;98868.55;1624489;87;21400;-69
2022/09/27 11:23:16;;;;;;;13.03;10.60;;;;;;;16.26;80.14;98866.52;1634608;85;21060;-69
2022/09/27 11:25:49;;;;;;;;;;;;;;;16.28;80.27;98868.46;1640211;85;21019;-71
2022/09/27 11:28:31;;;;;;;11.22;10.23;;;;;;;16.32;80.44;98867.07;1637129;85;21983;-70
2022/09/27 11:31:09;;;;;;;11.93;10.65;;;;;;;16.34;80.66;98865.03;1646733;82;21024;-69
2022/09/27 11:34:02;;;;;;;12.40;10.68;;;;;;;16.38;80.86;98858.28;1674139;83;20976;-69
2022/09/27 11:36:50;;;;;;;11.95;10.80;;;;;;;16.40;81.03;98859.41;1656937;85;21010;-70
2022/09/27 11:39:54;;;;;;;25.70;12.33;;;;;;;16.38;81.11;98860.13;1690952;84;21056;-69
2022/09/27 11:43:06;;;;;;;13.25;11.63;;;;;;;16.37;81.21;98855.81;1675081;83;21856;-69
2022/09/27 11:45:44;;;;;;;14.93;12.05;;;;;;;16.38;81.31;98859.61;1669239;83;21108;-69
2022/09/27 11:48:35;;;;;;;15.80;12.78;;;;;;;16.34;81.16;98858.37;1716750;83;20957;-69
2022/09/27 11:51:47;;;;;;;14.65;12.47;;;;;;;16.30;81.19;98860.58;1711006;83;21024;-70
2022/09/27 11:54:44;;;;;;;13.72;12.43;;;;;;;16.31;81.37;98856.92;1698384;83;20983;-69
2022/09/27 11:57:25;;;;;;;14.15;12.82;;;;;;;16.33;81.52;98850.58;1653707;85;21884;-69
2022/09/27 12:00:08;;;;;;;14.10;12.80;;;;;;;16.33;81.67;98853.23;1710123;82;21016;-69
2022/09/27 12:03:15;;;;;;;14.15;12.75;;;;;;;16.34;81.84;98849.05;1682209;83;21052;-69
2022/09/27 12:06:01;;;;;;;14.43;13.00;;;;;;;16.36;81.95;98844.84;1674304;83;21044;-69
2022/09/27 12:08:54;;;;;;;14.05;12.60;;;;;;;16.35;82.02;98840.03;1678201;83;21033;-69